Time;durP1;ratioP1;P1;durP2;ratioP2;P2;SDS_P1;SDS_P2;PMS_P1;PMS_P2;Temp;Humidity;BMP_temperature;BMP_pressure;BME280_temperature;BME280_humidity;BME280_pressure;Samples;Min_cycle;Max_cycle;Signal;HPM_P1;HPM_P2
2024/01/20 00:01:12;;;;;;;44.00;20.63;;;;;;;-0.24;100.00;101579.63;4969748;28;20042;-83
2024/01/20 00:03:38;;;;;;;30.40;18.95;;;;;;;-0.23;100.00;101583.97;4969234;28;20138;-82
2024/01/20 00:06:05;;;;;;;32.38;17.20;;;;;;;-0.21;100.00;101582.38;4986134;28;20459;-84
2024/01/20 00:08:32;;;;;;;34.83;18.90;;;;;;;-0.20;100.00;101576.38;4998685;28;20050;-83
2024/01/20 00:11:03;;;;;;;38.83;19.30;;;;;;;-0.18;100.00;101577.38;4982714;28;20039;-83
2024/01/20 00:13:30;;;;;;;34.30;19.00;;;;;;;-0.19;100.00;101587.59;5003309;28;20054;-83
2024/01/20 00:15:59;;;;;;;37.05;20.95;;;;;;;-0.20;100.00;101588.38;4969505;28;20058;-82
2024/01/20 00:18:26;;;;;;;32.38;17.42;;;;;;;-0.20;100.00;101580.66;4972511;28;20046;-82
2024/01/20 00:20:52;;;;;;;26.60;16.58;;;;;;;-0.15;100.00;101597.22;4977089;28;20054;-84
2024/01/20 00:23:20;;;;;;;37.72;19.55;;;;;;;-0.15;100.00;101591.19;4629039;28;10000567;-82
2024/01/20 00:25:49;;;;;;;38.17;21.13;;;;;;;-0.18;100.00;101590.22;5005934;28;20413;-82
2024/01/20 00:28:19;;;;;;;35.88;20.88;;;;;;;-0.16;100.00;101587.72;4988164;28;20397;-84
2024/01/20 00:30:48;;;;;;;47.88;21.70;;;;;;;-0.18;100.00;101586.78;4976097;28;20489;-81
2024/01/20 00:33:14;;;;;;;35.22;20.38;;;;;;;-0.17;100.00;101585.94;4991416;28;20050;-81
2024/01/20 00:35:42;;;;;;;39.45;20.88;;;;;;;-0.18;100.00;101584.22;4988083;28;20418;-82
2024/01/20 00:38:09;;;;;;;35.30;19.83;;;;;;;-0.16;100.00;101590.31;4975905;28;20101;-83
2024/01/20 00:40:36;;;;;;;35.47;19.17;;;;;;;-0.15;100.00;101580.91;4975040;28;20174;-83
2024/01/20 00:43:06;;;;;;;36.85;19.38;;;;;;;-0.15;100.00;101592.06;5017704;28;20052;-83
2024/01/20 00:45:33;;;;;;;34.80;18.52;;;;;;;-0.13;100.00;101587.00;5013489;28;20054;-83
2024/01/20 00:48:01;;;;;;;40.22;18.67;;;;;;;-0.14;100.00;101583.56;4992033;28;20856;-83
2024/01/20 00:50:35;;;;;;;37.03;18.92;;;;;;;-0.14;100.00;101590.38;4988244;28;20038;-82
2024/01/20 00:53:02;;;;;;;43.78;18.00;;;;;;;-0.14;100.00;101591.28;4975297;28;20074;-84
2024/01/20 00:55:29;;;;;;;29.63;18.15;;;;;;;-0.12;100.00;101587.06;4975430;28;20046;-84
2024/01/20 00:58:01;;;;;;;37.70;19.58;;;;;;;-0.10;100.00;101590.59;4987456;28;20055;-84
2024/01/20 01:00:28;;;;;;;32.38;16.85;;;;;;;-0.12;100.00;101601.63;4999407;28;20574;-83
2024/01/20 01:02:55;;;;;;;35.78;19.63;;;;;;;-0.10;100.00;101600.03;4992506;28;20053;-84
2024/01/20 01:05:22;;;;;;;39.10;19.60;;;;;;;-0.11;100.00;101608.56;4986014;28;20049;-83
2024/01/20 01:07:48;;;;;;;39.20;19.42;;;;;;;-0.10;100.00;101592.31;5000353;28;20054;-85
2024/01/20 01:10:16;;;;;;;33.92;18.27;;;;;;;-0.07;100.00;101600.19;5020213;28;20458;-83
2024/01/20 01:12:45;;;;;;;33.85;19.95;;;;;;;-0.07;100.00;101598.47;4974104;28;20053;-82
2024/01/20 01:15:11;;;;;;;40.70;19.55;;;;;;;-0.11;100.00;101595.69;5002317;28;20050;-84
2024/01/20 01:17:38;;;;;;;31.35;18.23;;;;;;;-0.08;100.00;101606.13;4980547;28;20130;-83
2024/01/20 01:20:05;;;;;;;34.58;18.20;;;;;;;-0.12;100.00;101604.22;4985940;28;20061;-82
2024/01/20 01:22:32;;;;;;;34.03;18.48;;;;;;;-0.12;100.00;101610.22;4972696;28;20050;-82
2024/01/20 01:24:59;;;;;;;35.28;20.02;;;;;;;-0.10;100.00;101605.19;5001266;28;20125;-83
2024/01/20 01:27:26;;;;;;;34.97;19.50;;;;;;;-0.12;100.00;101601.63;4988777;28;20073;-83
2024/01/20 01:29:52;;;;;;;41.38;19.65;;;;;;;-0.11;100.00;101605.97;4970696;28;20502;-83
2024/01/20 01:32:24;;;;;;;30.77;18.30;;;;;;;-0.12;100.00;101615.38;4970709;28;20078;-83
2024/01/20 01:34:51;;;;;;;33.72;19.08;;;;;;;-0.11;100.00;101621.44;5016808;28;20042;-82
2024/01/20 01:37:17;;;;;;;36.78;19.40;;;;;;;-0.15;100.00;101617.81;4973986;28;20054;-83
2024/01/20 01:39:44;;;;;;;33.63;19.10;;;;;;;-0.15;100.00;101619.50;4972584;28;20054;-82
2024/01/20 01:42:11;;;;;;;46.95;21.08;;;;;;;-0.15;100.00;101629.81;4990567;28;20410;-83
2024/01/20 01:44:38;;;;;;;33.17;18.50;;;;;;;-0.21;100.00;101632.94;4973182;28;20569;-84
2024/01/20 01:47:04;;;;;;;35.13;20.90;;;;;;;-0.19;100.00;101644.19;4989591;28;20046;-82
2024/01/20 01:49:34;;;;;;;32.40;19.05;;;;;;;-0.23;100.00;101642.28;4987962;28;20053;-82
2024/01/20 01:52:05;;;;;;;40.03;20.73;;;;;;;-0.23;100.00;101650.00;4974473;28;20070;-82
2024/01/20 01:54:32;;;;;;;33.22;18.15;;;;;;;-0.23;100.00;101652.56;5000224;28;20137;-84
2024/01/20 01:57:04;;;;;;;33.60;19.67;;;;;;;-0.22;100.00;101655.22;5009359;28;20045;-82
2024/01/20 01:59:32;;;;;;;36.10;20.42;;;;;;;-0.16;100.00;101659.78;4992123;28;20929;-84
2024/01/20 02:02:02;;;;;;;32.90;18.00;;;;;;;-0.12;100.00;101658.25;5029286;28;20513;-81
2024/01/20 02:04:32;;;;;;;31.77;16.98;;;;;;;-0.11;100.00;101657.47;5024896;28;20046;-84
2024/01/20 02:07:05;;;;;;;35.67;17.45;;;;;;;-0.07;100.00;101647.38;5008868;28;20045;-84
2024/01/20 02:09:33;;;;;;;34.95;17.23;;;;;;;0.07;100.00;101652.34;5003534;28;20038;-84
2024/01/20 02:12:03;;;;;;;37.72;17.38;;;;;;;0.03;100.00;101637.53;4974732;28;20099;-85
2024/01/20 02:14:35;;;;;;;38.38;17.27;;;;;;;0.08;100.00;101648.94;4988939;28;20050;-83
2024/01/20 02:17:06;;;;;;;32.00;16.95;;;;;;;0.08;100.00;101649.84;4992135;28;20072;-84
2024/01/20 02:19:40;;;;;;;30.58;15.93;;;;;;;0.05;100.00;101647.09;5023112;28;20038;-84
2024/01/20 02:22:13;;;;;;;29.80;16.55;;;;;;;0.05;100.00;101639.38;5005862;28;20057;-84
2024/01/20 02:24:50;;;;;;;28.25;17.05;;;;;;;0.08;100.00;101649.84;4991972;28;20054;-84
2024/01/20 02:27:19;;;;;;;35.83;18.10;;;;;;;0.09;100.00;101649.06;5004395;28;20432;-84
2024/01/20 02:29:48;;;;;;;40.97;19.48;;;;;;;0.03;100.00;101652.97;4987820;28;20065;-84
2024/01/20 02:32:15;;;;;;;30.50;15.68;;;;;;;0.01;100.00;101658.06;5020019;28;20057;-83
2024/01/20 02:34:42;;;;;;;28.65;16.08;;;;;;;-0.02;100.00;101671.66;4977532;28;20050;-84
2024/01/20 02:37:11;;;;;;;28.83;16.13;;;;;;;0.01;100.00;101682.94;4988319;28;20480;-84
2024/01/20 02:39:38;;;;;;;37.45;16.63;;;;;;;0.05;100.00;101674.56;4985484;28;20085;-82
2024/01/20 02:42:10;;;;;;;28.35;16.25;;;;;;;0.09;100.00;101667.06;4992549;28;20099;-84
2024/01/20 02:44:41;;;;;;;34.30;18.30;;;;;;;0.03;100.00;101661.63;4978848;28;20062;-83
2024/01/20 02:47:09;;;;;;;37.85;16.63;;;;;;;0.03;100.00;101664.19;4991988;28;20058;-84
2024/01/20 02:49:36;;;;;;;40.58;17.08;;;;;;;0.00;100.00;101671.78;4973568;28;20401;-83
2024/01/20 02:52:03;;;;;;;28.88;15.38;;;;;;;-0.04;100.00;101665.56;4975852;28;20049;-82
2024/01/20 02:54:32;;;;;;;35.55;18.73;;;;;;;-0.04;100.00;101660.44;5002706;28;20128;-84
2024/01/20 02:57:01;;;;;;;31.75;16.85;;;;;;;-0.02;100.00;101668.22;5018713;28;20046;-83
2024/01/20 02:59:27;;;;;;;32.22;17.23;;;;;;;-0.06;100.00;101668.88;4990342;28;20034;-82
2024/01/20 03:01:54;;;;;;;39.08;19.70;;;;;;;-0.10;100.00;101672.97;4987992;28;20088;-83
2024/01/20 03:04:20;;;;;;;28.88;16.02;;;;;;;-0.10;100.00;101660.09;4987871;28;20092;-84
2024/01/20 03:06:47;;;;;;;38.75;18.15;;;;;;;-0.16;100.00;101662.34;4974412;28;20053;-82
2024/01/20 03:09:15;;;;;;;34.10;17.63;;;;;;;-0.20;100.00;101661.31;5005007;28;20069;-83
2024/01/20 03:11:44;;;;;;;35.53;17.30;;;;;;;-0.19;100.00;101663.09;4974913;28;20073;-83
2024/01/20 03:14:17;;;;;;;33.42;17.17;;;;;;;-0.22;100.00;101654.31;4971692;28;20477;-84
2024/01/20 03:16:47;;;;;;;38.35;19.42;;;;;;;-0.21;100.00;101658.66;4993900;28;20370;-83
2024/01/20 03:19:16;;;;;;;42.42;18.20;;;;;;;-0.21;100.00;101661.25;4974616;28;20046;-82
2024/01/20 03:21:42;;;;;;;41.35;17.95;;;;;;;-0.23;100.00;101662.88;4996625;28;20104;-84
2024/01/20 03:24:11;;;;;;;40.60;18.38;;;;;;;-0.26;100.00;101666.16;4980444;28;20061;-83
2024/01/20 03:26:38;;;;;;;42.85;18.20;;;;;;;-0.22;100.00;101669.75;4975073;28;20666;-83
2024/01/20 03:29:10;;;;;;;36.92;18.35;;;;;;;-0.23;100.00;101665.44;4995205;28;20081;-83
2024/01/20 03:31:37;;;;;;;40.00;18.60;;;;;;;-0.23;100.00;101673.16;4978487;28;20038;-82
2024/01/20 03:34:05;;;;;;;35.42;18.27;;;;;;;-0.25;100.00;101673.09;5008283;28;20059;-83
2024/01/20 03:36:32;;;;;;;35.00;16.98;;;;;;;-0.26;100.00;101672.97;5004853;28;20494;-83
2024/01/20 03:38:59;;;;;;;39.45;18.98;;;;;;;-0.25;100.00;101669.63;4994278;28;20072;-82
2024/01/20 03:41:25;;;;;;;32.50;17.88;;;;;;;-0.23;100.00;101678.31;4977850;28;20088;-83
2024/01/20 03:43:55;;;;;;;33.60;17.48;;;;;;;-0.25;100.00;101678.22;4976256;28;20050;-84
2024/01/20 03:46:23;;;;;;;33.35;17.17;;;;;;;-0.22;100.00;101678.38;5025011;28;20049;-83
2024/01/20 03:48:55;;;;;;;37.90;17.58;;;;;;;-0.25;100.00;101685.97;4992289;28;20129;-82
2024/01/20 03:51:26;;;;;;;43.85;20.08;;;;;;;-0.25;100.00;101683.38;4971764;28;20050;-84
2024/01/20 03:53:56;;;;;;;35.85;19.75;;;;;;;-0.25;100.00;101693.69;4994727;28;20050;-82
2024/01/20 03:56:23;;;;;;;35.83;19.00;;;;;;;-0.24;100.00;101695.41;4980585;28;20452;-82
2024/01/20 03:58:51;;;;;;;43.50;18.50;;;;;;;-0.24;100.00;101708.28;5009696;28;20057;-83
2024/01/20 04:01:17;;;;;;;39.78;17.88;;;;;;;-0.24;100.00;101702.25;4978078;28;20073;-84
2024/01/20 04:03:44;;;;;;;34.30;18.08;;;;;;;-0.23;100.00;101706.63;5026183;28;20053;-83
2024/01/20 04:06:10;;;;;;;36.30;21.10;;;;;;;-0.26;100.00;101709.91;5002880;28;20434;-84
2024/01/20 04:08:37;;;;;;;38.78;19.52;;;;;;;-0.25;100.00;101716.84;5003914;28;20039;-83
2024/01/20 04:11:07;;;;;;;36.67;19.08;;;;;;;-0.24;100.00;101713.44;4994784;28;20046;-82
2024/01/20 04:13:34;;;;;;;37.70;17.65;;;;;;;-0.25;100.00;101713.34;5015723;28;20111;-84
2024/01/20 04:16:01;;;;;;;37.38;19.10;;;;;;;-0.24;100.00;101721.16;5016380;28;20533;-84
2024/01/20 04:18:29;;;;;;;36.15;21.77;;;;;;;-0.24;100.00;101718.56;4976391;28;20042;-83
2024/01/20 04:20:57;;;;;;;42.00;19.27;;;;;;;-0.23;100.00;101711.75;4999272;28;20100;-83
2024/01/20 04:23:27;;;;;;;35.75;19.30;;;;;;;-0.23;100.00;101719.47;5020391;28;20097;-83
2024/01/20 04:25:54;;;;;;;34.58;16.52;;;;;;;-0.26;100.00;101711.56;5018210;28;20045;-84
2024/01/20 04:28:23;;;;;;;31.52;16.65;;;;;;;-0.28;100.00;101713.22;5000194;28;20045;-83
2024/01/20 04:30:50;;;;;;;35.42;18.20;;;;;;;-0.31;100.00;101708.78;5026294;28;20057;-83
2024/01/20 04:33:22;;;;;;;30.73;16.92;;;;;;;-0.30;100.00;101713.13;4998208;28;20072;-83
2024/01/20 04:35:49;;;;;;;35.05;17.95;;;;;;;-0.32;100.00;101709.59;5003224;28;20061;-82
2024/01/20 04:38:19;;;;;;;36.55;18.40;;;;;;;-0.32;100.00;101717.31;5008619;28;20397;-82
2024/01/20 04:40:48;;;;;;;33.90;16.00;;;;;;;-0.32;100.00;101714.72;4999718;28;20057;-83
2024/01/20 04:43:17;;;;;;;33.25;16.48;;;;;;;-0.34;100.00;101711.19;4994151;28;20038;-83
2024/01/20 04:45:44;;;;;;;28.45;16.05;;;;;;;-0.34;100.00;101716.31;4995781;28;20058;-83
2024/01/20 04:48:10;;;;;;;30.02;16.58;;;;;;;-0.36;100.00;101723.97;4997162;28;20034;-84
2024/01/20 04:50:37;;;;;;;33.80;17.77;;;;;;;-0.39;100.00;101725.47;4973999;28;20113;-83
2024/01/20 04:53:04;;;;;;;30.90;16.73;;;;;;;-0.40;100.00;101722.03;5027778;28;20052;-82
2024/01/20 04:55:33;;;;;;;35.10;17.77;;;;;;;-0.41;100.00;101729.69;4980160;28;20100;-82
2024/01/20 04:58:00;;;;;;;28.27;14.85;;;;;;;-0.44;100.00;101737.22;4969024;28;20049;-83
2024/01/20 05:00:26;;;;;;;35.53;17.50;;;;;;;-0.43;100.00;101733.84;5001769;28;20046;-83
2024/01/20 05:02:56;;;;;;;27.45;16.40;;;;;;;-0.43;100.00;101733.84;5011789;28;20156;-83
2024/01/20 05:05:26;;;;;;;29.33;16.88;;;;;;;-0.48;100.00;101736.19;4990610;28;20084;-82
2024/01/20 05:07:54;;;;;;;30.38;16.08;;;;;;;-0.51;100.00;101738.56;5012462;28;20133;-84
2024/01/20 05:10:24;;;;;;;31.17;14.95;;;;;;;-0.51;100.00;101742.06;5004731;28;20058;-82
2024/01/20 05:12:53;;;;;;;28.98;16.77;;;;;;;-0.55;100.00;101740.13;4997293;28;20078;-84
2024/01/20 05:15:20;;;;;;;36.55;16.92;;;;;;;-0.53;100.00;101743.66;4978774;28;20116;-84
2024/01/20 05:17:48;;;;;;;32.60;16.02;;;;;;;-0.54;100.00;101746.13;4987362;28;20054;-83
2024/01/20 05:20:15;;;;;;;32.78;16.67;;;;;;;-0.57;100.00;101746.88;4976846;28;20056;-82
2024/01/20 05:22:42;;;;;;;29.20;16.75;;;;;;;-0.55;100.00;101759.78;4989393;28;20463;-83
2024/01/20 05:25:12;;;;;;;32.35;13.98;;;;;;;-0.58;100.00;101754.50;5005176;28;20145;-83
2024/01/20 05:27:38;;;;;;;31.35;15.52;;;;;;;-0.59;100.00;101750.16;4974104;28;20118;-83
2024/01/20 05:30:05;;;;;;;23.67;13.48;;;;;;;-0.54;100.00;101770.16;4978079;28;20448;-83
2024/01/20 05:32:35;;;;;;;27.05;14.45;;;;;;;-0.55;100.00;101763.28;4990245;28;20073;-83
2024/01/20 05:35:02;;;;;;;25.02;13.90;;;;;;;-0.58;100.00;101773.38;5022782;28;20050;-83
2024/01/20 05:37:29;;;;;;;30.17;15.45;;;;;;;-0.57;100.00;101769.13;4994915;28;21201;-83
2024/01/20 05:40:01;;;;;;;29.38;14.90;;;;;;;-0.57;100.00;101770.00;5025051;28;20072;-83
2024/01/20 05:42:32;;;;;;;30.65;15.18;;;;;;;-0.54;100.00;101777.00;5015439;28;20042;-83
2024/01/20 05:45:00;;;;;;;28.10;13.57;;;;;;;-0.59;100.00;101781.88;5005614;28;20053;-82
2024/01/20 05:47:37;;;;;;;25.98;14.10;;;;;;;-0.59;100.00;101783.59;4976176;28;20505;-82
2024/01/20 05:50:05;;;;;;;26.55;14.68;;;;;;;-0.60;100.00;101779.22;5008441;28;20512;-84
2024/01/20 05:52:34;;;;;;;28.60;14.32;;;;;;;-0.58;100.00;101780.22;4990812;28;20071;-83
2024/01/20 05:55:01;;;;;;;30.30;14.27;;;;;;;-0.58;100.00;101780.22;4971947;28;20042;-84
2024/01/20 05:57:28;;;;;;;28.55;15.00;;;;;;;-0.56;100.00;101788.88;5005722;28;20061;-83
2024/01/20 05:59:54;;;;;;;25.67;14.40;;;;;;;-0.56;100.00;101799.16;4997995;28;20046;-83
2024/01/20 06:02:21;;;;;;;30.92;15.70;;;;;;;-0.57;100.00;101795.72;5003829;28;20141;-83
2024/01/20 06:04:48;;;;;;;26.45;14.20;;;;;;;-0.57;100.00;101797.44;4991785;28;20053;-83
2024/01/20 06:07:14;;;;;;;25.23;13.73;;;;;;;-0.58;100.00;101806.81;4990685;28;20100;-83
2024/01/20 06:09:41;;;;;;;30.00;14.15;;;;;;;-0.59;100.00;101809.31;4977246;28;20111;-82
2024/01/20 06:12:08;;;;;;;24.20;13.23;;;;;;;-0.62;100.00;101798.88;5011762;28;20052;-84
2024/01/20 06:14:35;;;;;;;25.73;14.15;;;;;;;-0.63;100.00;101794.50;5005642;28;20436;-82
2024/01/20 06:17:02;;;;;;;26.23;12.43;;;;;;;-0.62;100.00;101801.44;5007293;28;20066;-83
2024/01/20 06:19:29;;;;;;;28.40;14.50;;;;;;;-0.63;100.00;101805.66;5023235;28;20068;-82
2024/01/20 06:21:55;;;;;;;25.35;14.15;;;;;;;-0.62;100.00;101801.44;5004750;28;20042;-84
2024/01/20 06:24:22;;;;;;;20.83;13.32;;;;;;;-0.63;100.00;101809.94;5010043;28;20624;-82
2024/01/20 06:26:49;;;;;;;29.80;15.98;;;;;;;-0.67;100.00;101806.31;4996589;28;20042;-82
2024/01/20 06:29:15;;;;;;;22.90;12.73;;;;;;;-0.70;100.00;101801.88;4978953;28;20054;-84
2024/01/20 06:31:42;;;;;;;21.33;12.40;;;;;;;-0.70;100.00;101806.16;5002084;28;20053;-82
2024/01/20 06:34:09;;;;;;;26.10;13.38;;;;;;;-0.70;100.00;101814.75;5010688;28;20042;-85
2024/01/20 06:36:35;;;;;;;27.48;13.75;;;;;;;-0.70;100.00;101809.59;4975560;28;20053;-84
2024/01/20 06:39:02;;;;;;;25.13;12.10;;;;;;;-0.73;100.00;101817.16;4976765;28;20648;-83
2024/01/20 06:41:29;;;;;;;27.65;13.00;;;;;;;-0.71;100.00;101810.38;4980840;28;20065;-82
2024/01/20 06:43:55;;;;;;;20.88;12.57;;;;;;;-0.74;100.00;101825.66;4994482;28;20048;-84
2024/01/20 06:46:24;;;;;;;19.85;12.48;;;;;;;-0.74;100.00;101824.78;4986901;28;20129;-83
2024/01/20 06:48:54;;;;;;;27.55;13.45;;;;;;;-0.76;100.00;101824.66;4987872;28;20053;-82
2024/01/20 06:51:25;;;;;;;22.58;13.35;;;;;;;-0.75;100.00;101834.16;4989995;28;20577;-83
2024/01/20 06:53:57;;;;;;;26.58;12.32;;;;;;;-0.75;100.00;101828.16;5012488;28;20121;-82
2024/01/20 06:56:28;;;;;;;23.92;13.77;;;;;;;-0.77;100.00;101837.44;4996843;28;20409;-84
2024/01/20 06:58:56;;;;;;;24.77;13.48;;;;;;;-0.77;100.00;101834.88;4990685;28;20514;-83
2024/01/20 07:01:23;;;;;;;32.65;14.10;;;;;;;-0.76;100.00;101836.66;4990306;28;20050;-83
2024/01/20 07:03:52;;;;;;;22.17;12.60;;;;;;;-0.76;100.00;101832.38;4987740;28;20038;-83
2024/01/20 07:06:24;;;;;;;28.70;12.57;;;;;;;-0.74;100.00;101837.63;4972018;28;20042;-82
2024/01/20 07:08:52;;;;;;;26.33;13.07;;;;;;;-0.75;100.00;101825.56;4990174;28;20050;-84
2024/01/20 07:11:18;;;;;;;24.75;13.25;;;;;;;-0.73;100.00;101836.81;5007006;28;20132;-84
2024/01/20 07:13:45;;;;;;;26.73;12.57;;;;;;;-0.74;100.00;101837.63;5019394;28;20122;-81
2024/01/20 07:16:17;;;;;;;26.95;12.57;;;;;;;-0.73;100.00;101845.44;5011811;28;20054;-83
2024/01/20 07:18:47;;;;;;;27.85;14.95;;;;;;;-0.70;100.00;101852.44;5007404;28;20049;-82
2024/01/20 07:21:15;;;;;;;23.27;12.45;;;;;;;-0.70;100.00;101843.03;5032911;28;20050;-84
2024/01/20 07:23:45;;;;;;;25.00;13.50;;;;;;;-0.66;100.00;101849.22;5014224;28;20051;-82
2024/01/20 07:26:12;;;;;;;22.25;12.07;;;;;;;-0.66;100.00;101849.22;4990381;28;20052;-83
2024/01/20 07:28:41;;;;;;;23.35;13.07;;;;;;;-0.67;100.00;101858.63;5004566;28;20050;-83
2024/01/20 07:31:08;;;;;;;26.63;14.23;;;;;;;-0.68;100.00;101862.00;4975422;28;20058;-83
2024/01/20 07:33:34;;;;;;;27.13;12.63;;;;;;;-0.64;100.00;101860.47;4971531;28;20134;-83
2024/01/20 07:36:03;;;;;;;34.55;13.93;;;;;;;-0.64;100.00;101857.03;4988456;28;20060;-83
2024/01/20 07:38:29;;;;;;;35.40;14.82;;;;;;;-0.60;100.00;101866.69;5009832;28;20983;-86
2024/01/20 07:40:58;;;;;;;28.38;13.35;;;;;;;-0.64;100.00;101855.31;4972337;28;20498;-82
2024/01/20 07:43:25;;;;;;;22.67;12.15;;;;;;;-0.62;100.00;101852.88;4993644;28;20137;-84
2024/01/20 07:45:54;;;;;;;23.30;13.30;;;;;;;-0.63;100.00;101866.53;4988427;28;20061;-82
2024/01/20 07:48:21;;;;;;;25.30;13.40;;;;;;;-0.61;100.00;101860.66;4990153;28;20046;-84
2024/01/20 07:50:49;;;;;;;28.30;14.48;;;;;;;-0.56;100.00;101866.03;4977966;28;20073;-84
2024/01/20 07:53:15;;;;;;;23.77;13.57;;;;;;;-0.53;100.00;101867.09;5019443;28;20039;-83
2024/01/20 07:55:42;;;;;;;26.23;13.77;;;;;;;-0.56;100.00;101877.25;4992409;28;20046;-85
2024/01/20 07:58:09;;;;;;;33.83;14.30;;;;;;;-0.52;100.00;101873.16;4982745;28;20041;-84
2024/01/20 08:00:35;;;;;;;26.63;12.65;;;;;;;-0.49;100.00;101875.03;4986326;28;20093;-84
2024/01/20 08:03:02;;;;;;;24.73;13.30;;;;;;;-0.46;100.00;101886.34;4991405;28;20031;-83
2024/01/20 08:05:32;;;;;;;28.25;14.20;;;;;;;-0.43;100.00;101886.53;4985883;28;20045;-84
2024/01/20 08:07:59;;;;;;;30.00;14.48;;;;;;;-0.43;100.00;101889.09;4990982;28;20149;-83
2024/01/20 08:10:25;;;;;;;28.70;12.52;;;;;;;-0.40;100.00;101884.13;4983731;28;20066;-84
2024/01/20 08:12:53;;;;;;;25.90;13.18;;;;;;;-0.34;100.00;101899.91;4976445;28;20046;-81
2024/01/20 08:15:19;;;;;;;24.60;13.43;;;;;;;-0.34;100.00;101897.34;5000398;28;20583;-84
2024/01/20 08:17:46;;;;;;;35.67;12.52;;;;;;;-0.33;100.00;101898.22;4988263;28;20051;-84
2024/01/20 08:20:13;;;;;;;26.85;13.25;;;;;;;-0.30;100.00;101903.53;4990274;28;20100;-85
2024/01/20 08:22:39;;;;;;;26.70;12.77;;;;;;;-0.29;100.00;101917.28;4976527;28;20111;-84
2024/01/20 08:25:06;;;;;;;22.95;12.30;;;;;;;-0.22;100.00;101914.22;4988854;28;20117;-84
2024/01/20 08:27:33;;;;;;;26.00;13.02;;;;;;;-0.18;100.00;101919.66;5005870;28;20057;-82
2024/01/20 08:30:03;;;;;;;26.20;12.45;;;;;;;-0.15;100.00;101913.78;4977452;28;20073;-85
2024/01/20 08:32:32;;;;;;;27.10;12.93;;;;;;;-0.09;100.00;101928.66;4991220;28;20050;-83
2024/01/20 08:35:05;;;;;;;23.63;11.68;;;;;;;-0.06;100.00;101924.56;4993554;28;20490;-82
2024/01/20 08:37:32;;;;;;;26.15;12.13;;;;;;;-0.04;100.00;101923.00;4974976;28;20518;-83
2024/01/20 08:40:02;;;;;;;31.85;14.88;;;;;;;0.02;100.00;101926.69;4979107;28;20076;-83
2024/01/20 08:42:29;;;;;;;23.10;12.07;;;;;;;0.09;100.00;101939.09;4995043;28;20058;-83
2024/01/20 08:44:55;;;;;;;22.70;11.10;;;;;;;0.13;100.00;101935.88;4976986;28;20057;-83
2024/01/20 08:47:25;;;;;;;21.23;11.55;;;;;;;0.15;100.00;101919.72;4983071;28;20525;-82
2024/01/20 08:49:52;;;;;;;28.70;12.70;;;;;;;0.22;100.00;101928.69;4989168;28;20124;-83
2024/01/20 08:52:20;;;;;;;23.17;11.90;;;;;;;0.30;100.00;101918.75;4987534;28;20056;-84
2024/01/20 08:54:53;;;;;;;24.08;12.35;;;;;;;0.39;100.00;101931.25;4999354;28;20493;-83
2024/01/20 08:57:20;;;;;;;22.20;12.27;;;;;;;0.37;100.00;101920.00;5032799;28;20096;-84
2024/01/20 08:59:47;;;;;;;28.27;11.30;;;;;;;0.44;100.00;101919.50;4987191;28;20413;-85
2024/01/20 09:02:14;;;;;;;23.33;11.23;;;;;;;0.48;100.00;101918.84;5001720;28;20459;-84
2024/01/20 09:04:40;;;;;;;21.80;10.27;;;;;;;0.50;100.00;101932.72;4984534;28;20045;-83
2024/01/20 09:07:09;;;;;;;22.77;12.45;;;;;;;0.56;100.00;101940.78;5029122;28;20046;-79
2024/01/20 09:09:36;;;;;;;18.80;10.65;;;;;;;0.59;100.00;101932.31;5000132;28;20068;-84
2024/01/20 09:12:03;;;;;;;22.92;11.27;;;;;;;0.55;100.00;101935.50;4990752;28;20055;-84
2024/01/20 09:14:30;;;;;;;23.25;11.68;;;;;;;0.57;100.00;101927.06;4988931;28;20046;-82
2024/01/20 09:16:57;;;;;;;21.58;11.40;;;;;;;0.59;100.00;101938.34;4999708;28;20034;-83
2024/01/20 09:19:23;;;;;;;27.60;12.70;;;;;;;0.62;100.00;101935.03;4979677;28;20049;-83
2024/01/20 09:21:51;;;;;;;23.02;11.88;;;;;;;0.67;100.00;101940.44;4996779;28;20136;-84
2024/01/20 09:24:20;;;;;;;21.20;11.48;;;;;;;0.69;100.00;101943.97;5011137;28;20046;-83
2024/01/20 09:26:47;;;;;;;21.30;11.75;;;;;;;0.76;100.00;101946.06;4998984;28;20085;-84
2024/01/20 09:29:14;;;;;;;21.63;11.80;;;;;;;0.78;100.00;101947.03;4984729;28;20497;-84
2024/01/20 09:31:40;;;;;;;20.08;11.05;;;;;;;0.80;100.00;101954.03;4995767;28;20097;-83
2024/01/20 09:34:07;;;;;;;23.55;11.40;;;;;;;0.82;100.00;101964.41;5023162;28;20453;-84
2024/01/20 09:36:34;;;;;;;18.42;11.13;;;;;;;0.85;100.00;101954.28;5013118;28;20046;-85
2024/01/20 09:39:04;;;;;;;25.33;11.68;;;;;;;0.88;100.00;101974.19;5014547;28;20294;-84
2024/01/20 09:41:34;;;;;;;23.38;11.32;;;;;;;0.92;100.00;101978.69;5029922;28;20042;-83
2024/01/20 09:44:03;;;;;;;17.45;10.18;;;;;;;0.93;100.00;101981.34;4995651;28;20049;-85
2024/01/20 09:46:33;;;;;;;25.00;11.07;;;;;;;0.94;100.00;101972.81;4991265;28;20062;-84
2024/01/20 09:49:00;;;;;;;19.92;11.57;;;;;;;0.98;100.00;101981.59;5012286;28;20042;-84
2024/01/20 09:51:31;;;;;;;19.10;9.90;;;;;;;1.01;100.00;101981.75;5012339;28;20061;-85
2024/01/20 09:54:04;;;;;;;19.35;9.80;;;;;;;1.01;100.00;101979.16;5013433;28;20069;-85
2024/01/20 09:56:40;;;;;;;22.73;10.80;;;;;;;1.11;100.00;101983.13;4998935;28;20156;-85
2024/01/20 09:59:09;;;;;;;28.88;10.73;;;;;;;1.12;100.00;101975.44;5039020;28;20042;-85
2024/01/20 10:01:37;;;;;;;20.50;9.57;;;;;;;1.11;100.00;101960.78;5000889;28;20496;-85
2024/01/20 10:04:04;;;;;;;19.30;9.40;;;;;;;1.22;100.00;101969.03;4996177;28;20038;-84
2024/01/20 10:06:34;;;;;;;22.40;11.45;;;;;;;1.29;100.00;101968.56;5009887;28;20050;-85
2024/01/20 10:09:00;;;;;;;16.48;9.13;;;;;;;1.34;100.00;101960.16;5007864;28;20058;-83
2024/01/20 10:11:27;;;;;;;23.13;9.00;;;;;;;1.40;100.00;101969.09;4996287;28;20048;-84
2024/01/20 10:13:56;;;;;;;26.38;12.40;;;;;;;1.52;100.00;101979.13;4984262;28;20045;-85
2024/01/20 10:16:25;;;;;;;16.77;8.43;;;;;;;1.58;100.00;101975.97;4986771;28;20100;-85
2024/01/20 10:18:52;;;;;;;19.25;10.07;;;;;;;1.67;100.00;101978.09;4996673;28;20094;-84
2024/01/20 10:21:20;;;;;;;27.67;12.48;;;;;;;1.70;100.00;101976.56;5012896;28;20486;-83
2024/01/20 10:23:47;;;;;;;20.75;10.27;;;;;;;1.73;100.00;101986.16;4997236;28;20117;-85
2024/01/20 10:26:13;;;;;;;21.08;10.27;;;;;;;1.64;100.00;101984.91;4986359;28;20042;-82
2024/01/20 10:28:40;;;;;;;18.38;9.65;;;;;;;1.68;100.00;101983.34;5011517;28;20199;-85
2024/01/20 10:31:10;;;;;;;19.98;8.57;;;;;;;1.63;100.00;101980.56;5006517;28;20080;-84
2024/01/20 10:33:38;;;;;;;20.48;10.05;;;;;;;1.77;100.00;101981.22;5034378;28;20501;-85
2024/01/20 10:36:05;;;;;;;18.27;8.63;;;;;;;1.79;100.00;101981.31;4997684;28;20046;-84
2024/01/20 10:38:38;;;;;;;15.82;9.60;;;;;;;1.80;100.00;101983.06;4989408;28;20057;-84
2024/01/20 10:41:08;;;;;;;18.05;9.68;;;;;;;1.81;100.00;101988.31;5011800;28;20094;-86
2024/01/20 10:43:40;;;;;;;15.18;9.38;;;;;;;1.81;100.00;101987.41;5007428;28;20049;-85
2024/01/20 10:46:30;;;;;;;17.80;8.25;;;;;;;1.86;100.00;101988.50;4993293;28;20136;-85
2024/01/20 10:49:01;;;;;;;21.80;9.18;;;;;;;1.89;100.00;102000.69;4979735;28;20140;-84
2024/01/20 10:51:34;;;;;;;20.85;9.38;;;;;;;1.96;100.00;101985.56;4980099;28;20098;-85
2024/01/20 10:54:12;;;;;;;17.65;9.13;;;;;;;2.00;100.00;101983.16;5029302;28;20043;-84
2024/01/20 10:56:59;;;;;;;20.75;9.25;;;;;;;2.03;100.00;101984.16;4971523;28;20054;-85
2024/01/20 11:02:28;;;;;;;20.20;9.13;;;;;;;2.13;100.00;101993.25;4985397;28;20099;-85
2024/01/20 11:04:58;;;;;;;15.10;8.13;;;;;;;2.19;100.00;101992.63;5030591;28;20136;-84
2024/01/20 11:07:30;;;;;;;21.33;8.73;;;;;;;2.29;100.00;101995.75;5013263;28;20110;-83
2024/01/20 11:09:59;;;;;;;18.75;8.82;;;;;;;2.31;100.00;101986.34;4979292;28;20049;-85
2024/01/20 11:12:29;;;;;;;15.80;9.00;;;;;;;2.38;100.00;101997.84;5009431;28;20137;-84